Latest Weather Observations for Portland Harbour

IDV60801

Issued at 11:02 pm EDT Thursday 29 January 2015 (issued every 30 minutes, with the page automatically refreshed every 10 minutes)

About weather observations | Map of weather stations | Latest weather observations for VIC | Other Formats
Station Details ID: 090192 Name: PORTLAND NTC AWS Lat: -38.34 Lon: 141.61 Height: 0.0 m
Data from the previous 72 hours. | See also: Recent months for locations in Victoria
Date/Time
EDT
Temp
°C
App
Temp
°C
Dew
Point
Rel
Hum
%
Delta-T
°C
Wind Press
QNH
hPa
Press
MSL
hPa
Rain
since 9 am
mm
Dir
 
Spd
km/h
Gust
km/h
Spd
kts
Gust
kts
29/11:00pm 16.1 - - - - SSE 28 35 15 19 1020.3 1020.3 -
29/10:30pm 16.5 - - - - SE 30 39 16 21 1020.4 1020.4 -
29/10:00pm 16.5 - - - - SE 32 39 17 21 1020.3 1020.3 -
29/09:30pm 16.7 - - - - SE 33 43 18 23 1020.1 1020.1 -
29/09:00pm 16.9 - - - - SE 32 43 17 23 1020.0 1020.0 -
29/08:30pm 16.9 - - - - SE 33 41 18 22 1019.9 1019.9 -
29/08:00pm 17.2 - - - - ESE 32 41 17 22 1019.9 1019.9 -
29/07:30pm 17.2 - - - - SE 32 39 17 21 1019.8 1019.8 -
29/07:00pm 17.5 - - - - ESE 32 39 17 21 1019.8 1019.8 -
29/06:30pm 17.5 - - - - ESE 32 39 17 21 1019.7 1019.7 -
29/06:00pm 17.7 - - - - ESE 30 39 16 21 1019.7 1019.7 -
29/05:30pm 17.5 - - - - ESE 32 39 17 21 1020.0 1020.0 -
29/05:00pm 17.6 - - - - ESE 32 37 17 20 1020.2 1020.2 -
29/04:30pm 17.8 - - - - SE 30 39 16 21 1020.4 1020.4 -
29/04:00pm 17.8 - - - - ESE 30 39 16 21 1020.6 1020.6 -
29/03:30pm 17.8 - - - - ESE 32 39 17 21 1020.8 1020.8 -
29/03:00pm 17.9 - - - - ESE 28 33 15 18 1021.0 1021.0 -
29/02:30pm 18.3 - - - - SE 24 32 13 17 1021.2 1021.2 -
29/02:00pm 17.9 - - - - SE 26 32 14 17 1021.2 1021.2 -
29/01:30pm 17.7 - - - - SE 24 30 13 16 1021.5 1021.5 -
29/01:00pm 17.4 - - - - SE 24 32 13 17 1021.9 1021.9 -
29/12:30pm 17.4 - - - - SE 22 30 12 16 1021.9 1021.9 -
29/12:00pm 17.5 - - - - SE 22 28 12 15 1022.1 1022.1 -
29/11:30am 17.4 - - - - SE 20 26 11 14 1022.1 1022.1 -
29/11:00am 17.4 - - - - SE 22 26 12 14 1022.2 1022.2 -
29/10:30am 17.1 - - - - SE 22 28 12 15 1022.2 1022.2 -
29/10:00am 17.0 - - - - SE 22 28 12 15 1022.1 1022.1 -
29/09:30am 16.9 - - - - SE 20 28 11 15 1022.2 1022.2 -
29/09:00am 16.6 - - - - SE 19 24 10 13 1022.1 1022.1 -
29/08:30am 16.5 - - - - SE 20 26 11 14 1021.8 1021.8 -
29/08:00am 16.5 - - - - SE 19 26 10 14 1021.6 1021.6 -
29/07:30am 16.3 - - - - SE 20 28 11 15 1021.2 1021.2 -
29/07:00am 16.2 - - - - SE 20 28 11 15 1021.1 1021.1 -
29/06:30am 16.1 - - - - SE 22 26 12 14 1020.8 1020.8 -
29/06:00am 16.0 - - - - SE 22 30 12 16 1020.6 1020.6 -
29/05:30am 16.2 - - - - SE 24 32 13 17 1020.3 1020.3 -
29/05:00am 16.2 - - - - ESE 24 32 13 17 1020.4 1020.4 -
29/04:30am 16.2 - - - - SE 28 33 15 18 1020.4 1020.4 -
29/04:00am 16.1 - - - - ESE 28 35 15 19 1020.3 1020.3 -
29/03:30am 16.3 - - - - SE 30 37 16 20 1020.5 1020.5 -
29/03:00am 16.3 - - - - ESE 30 37 16 20 1020.5 1020.5 -
29/02:30am 16.1 - - - - SE 30 39 16 21 1020.7 1020.7 -
29/02:00am 16.1 - - - - SE 32 41 17 22 1020.7 1020.7 -
29/01:30am 16.2 - - - - SE 32 43 17 23 1021.0 1021.0 -
29/01:00am 16.1 - - - - SE 32 41 17 22 1021.2 1021.2 -
29/12:30am 16.3 - - - - SE 33 39 18 21 1021.5 1021.5 -
29/12:00am 16.5 - - - - SE 33 44 18 24 1021.5 1021.5 -
 
Date/Time
EDT
Temp
°C
App
Temp
°C
Dew
Point
Rel
Hum
%
Delta-T
°C
Wind Press
QNH
hPa
Press
MSL
hPa
Rain
since 9 am
mm
Dir
 
Spd
km/h
Gust
km/h
Spd
kts
Gust
kts
28/11:30pm 16.6 - - - - SE 35 43 19 23 1021.5 1021.5 -
28/11:00pm 16.8 - - - - SE 35 46 19 25 1021.5 1021.5 -
28/10:30pm 16.8 - - - - SE 37 48 20 26 1021.5 1021.5 -
28/10:00pm 16.9 - - - - SE 39 50 21 27 1021.4 1021.4 -
28/09:30pm 17.2 - - - - SE 37 50 20 27 1020.9 1020.9 -
28/09:00pm 17.3 - - - - SE 35 46 19 25 1020.8 1020.8 -
28/08:30pm 17.4 - - - - SE 39 50 21 27 1020.7 1020.7 -
28/08:00pm 17.6 - - - - SE 24 39 13 21 1020.4 1020.4 -
28/07:30pm 17.7 - - - - SE 32 44 17 24 1020.1 1020.1 -
28/07:00pm 17.8 - - - - SE 32 43 17 23 1019.8 1019.8 -
28/06:30pm 17.8 - - - - SE 28 43 15 23 1019.8 1019.8 -
28/06:00pm 17.9 - - - - SE 32 46 17 25 1019.7 1019.7 -
28/05:35pm 17.9 - - - - SE 30 48 16 26 1019.7 1019.7 -
28/05:30pm 17.9 - - - - SE 28 46 15 25 1019.6 1019.6 -
28/05:02pm 18.0 - - - - SE 33 52 18 28 1019.7 1019.7 -
28/05:00pm 18.0 - - - - SE 35 52 19 28 1019.7 1019.7 -
28/04:30pm 18.0 - - - - SE 35 50 19 27 1019.5 1019.5 -
28/04:00pm 18.1 - - - - SE 39 52 21 28 1019.7 1019.7 -
28/03:30pm 18.0 - - - - SE 35 48 19 26 1019.9 1019.9 -
28/03:08pm 17.9 - - - - SE 33 54 18 29 1019.7 1019.7 -
28/03:00pm 17.9 - - - - SE 35 50 19 27 1019.8 1019.8 -
28/02:30pm 17.9 - - - - SE 37 50 20 27 1019.9 1019.9 -
28/02:00pm 18.0 - - - - SE 33 48 18 26 1020.1 1020.1 -
28/01:30pm 17.9 - - - - SE 33 46 18 25 1020.2 1020.2 -
28/01:00pm 17.9 - - - - SE 30 41 16 22 1020.5 1020.5 -
28/12:30pm 17.8 - - - - SE 30 39 16 21 1020.4 1020.4 -
28/12:00pm 17.4 - - - - SE 30 39 16 21 1020.7 1020.7 -
28/11:30am 17.2 - - - - SE 32 41 17 22 1020.8 1020.8 -
28/11:00am 17.1 - - - - SE 26 39 14 21 1020.7 1020.7 -
28/10:30am 16.5 - - - - SE 32 44 17 24 1020.7 1020.7 -
28/10:00am 16.3 - - - - SE 28 39 15 21 1020.7 1020.7 -
28/09:30am 16.2 - - - - SSE 32 43 17 23 1020.4 1020.4 -
28/09:00am 16.2 - - - - SE 30 43 16 23 1020.3 1020.3 -
28/08:30am 15.9 - - - - SE 30 43 16 23 1020.0 1020.0 -
28/08:00am 16.0 - - - - SE 33 43 18 23 1019.7 1019.7 -
28/07:30am 15.9 - - - - SSE 28 39 15 21 1019.4 1019.4 -
28/07:00am 15.9 - - - - SE 26 35 14 19 1019.2 1019.2 -
28/06:30am 15.8 - - - - SE 24 37 13 20 1018.9 1018.9 -
28/06:00am 15.6 - - - - SSE 24 33 13 18 1018.8 1018.8 -
28/05:30am 15.7 - - - - SE 26 35 14 19 1018.6 1018.6 -
28/05:00am 15.6 - - - - SE 32 44 17 24 1018.6 1018.6 -
28/04:30am 15.9 - - - - SE 33 46 18 25 1018.8 1018.8 -
28/04:00am 15.8 - - - - SSE 30 39 16 21 1018.9 1018.9 -
28/03:30am 15.8 - - - - SE 30 43 16 23 1019.1 1019.1 -
28/03:00am 16.0 - - - - SE 28 37 15 20 1019.2 1019.2 -
28/02:30am 15.8 - - - - SE 30 43 16 23 1019.3 1019.3 -
28/02:00am 15.7 - - - - SE 28 37 15 20 1019.5 1019.5 -
28/01:30am 15.8 - - - - SE 24 41 13 22 1019.6 1019.6 -
28/01:00am 15.9 - - - - SE 33 44 18 24 1019.7 1019.7 -
28/12:30am 15.9 - - - - SE 22 39 12 21 1019.7 1019.7 -
28/12:00am 15.8 - - - - SE 32 46 17 25 1019.8 1019.8 -
 
Date/Time
EDT
Temp
°C
App
Temp
°C
Dew
Point
Rel
Hum
%
Delta-T
°C
Wind Press
QNH
hPa
Press
MSL
hPa
Rain
since 9 am
mm
Dir
 
Spd
km/h
Gust
km/h
Spd
kts
Gust
kts
27/11:30pm 15.8 - - - - SE 24 39 13 21 1019.8 1019.8 -
27/11:00pm 15.8 - - - - SE 28 39 15 21 1020.0 1020.0 -
27/10:30pm 15.7 - - - - SE 30 41 16 22 1020.0 1020.0 -
27/10:00pm 15.7 - - - - SE 30 43 16 23 1020.0 1020.0 -
27/09:30pm 15.7 - - - - SSE 28 37 15 20 1019.8 1019.8 -
27/09:00pm 15.6 - - - - SE 28 41 15 22 1019.7 1019.7 -
27/08:30pm 15.6 - - - - SE 30 39 16 21 1019.5 1019.5 -
27/08:00pm 15.8 - - - - SE 28 35 15 19 1019.4 1019.4 -
27/07:30pm 16.2 - - - - SSE 30 41 16 22 1019.2 1019.2 -
27/07:00pm 16.0 - - - - SE 28 39 15 21 1019.0 1019.0 -
27/06:30pm 16.0 - - - - SE 30 39 16 21 1018.7 1018.7 -
27/06:00pm 16.1 - - - - SE 28 37 15 20 1018.7 1018.7 -
27/05:30pm 15.9 - - - - SE 30 41 16 22 1018.7 1018.7 -
27/05:00pm 16.2 - - - - SE 28 39 15 21 1018.7 1018.7 -
27/04:30pm 16.0 - - - - SE 30 39 16 21 1018.9 1018.9 -
27/04:00pm 15.9 - - - - SSE 26 35 14 19 1019.0 1019.0 -
27/03:30pm 15.8 - - - - SSE 32 41 17 22 1018.9 1018.9 -
27/03:00pm 15.9 - - - - SSE 24 37 13 20 1019.0 1019.0 -
27/02:30pm 16.0 - - - - SE 22 35 12 19 1018.8 1018.8 -
27/02:00pm 16.3 - - - - SE 19 30 10 16 1019.0 1019.0 -
27/01:30pm 16.4 - - - - SE 24 35 13 19 1019.2 1019.2 -
27/01:00pm 16.1 - - - - SSE 24 37 13 20 1019.2 1019.2 -
27/12:30pm 16.4 - - - - SSE 22 37 12 20 1019.3 1019.3 -
27/12:00pm 15.7 - - - - SSE 22 32 12 17 1019.4 1019.4 -
27/11:30am 15.7 - - - - S 20 30 11 16 1019.4 1019.4 -
27/11:00am 15.7 - - - - SSE 20 30 11 16 1019.4 1019.4 -
27/10:30am 15.7 - - - - SSE 17 22 9 12 1019.3 1019.3 -
27/10:00am 15.6 - - - - S 17 22 9 12 1019.2 1019.2 -
27/09:30am 15.4 - - - - S 19 24 10 13 1019.2 1019.2 -
27/09:00am 15.1 - - - - S 20 28 11 15 1019.1 1019.1 -
27/08:30am 15.1 - - - - S 20 28 11 15 1018.8 1018.8 -
27/08:00am 14.9 - - - - S 20 28 11 15 1018.3 1018.3 -
27/07:30am 14.8 - - - - S 15 20 8 11 1018.0 1018.0 -
27/07:00am 14.4 - - - - S 17 24 9 13 1017.8 1017.8 -
27/06:30am 12.3 - - - - SW 7 11 4 6 1017.6 1017.6 -
27/06:00am 11.1 - - - - SW 7 9 4 5 1017.5 1017.5 -
27/05:30am 11.3 - - - - SW 7 9 4 5 1017.4 1017.4 -
27/05:00am 10.6 - - - - SW 6 7 3 4 1017.5 1017.5 -
27/04:30am 11.2 - - - - SW 7 9 4 5 1017.6 1017.6 -
27/04:00am 11.2 - - - - SW 6 7 3 4 1017.8 1017.8 -
27/03:30am 11.3 - - - - SW 6 9 3 5 1018.1 1018.1 -
27/03:00am 11.6 - - - - WSW 7 11 4 6 1018.0 1018.0 -
27/02:30am 12.2 - - - - SW 7 9 4 5 1018.0 1018.0 -
27/02:00am 12.3 - - - - WSW 7 9 4 5 1018.1 1018.1 -
27/01:30am 12.9 - - - - SW 6 7 3 4 1018.3 1018.3 -
27/01:00am 13.2 - - - - SW 7 7 4 4 1018.4 1018.4 -
27/12:30am 13.3 - - - - SSW 7 11 4 6 1018.6 1018.6 -
27/12:00am 13.3 - - - - SSW 7 9 4 5 1018.6 1018.6 -
 
Date/Time
EDT
Temp
°C
App
Temp
°C
Dew
Point
Rel
Hum
%
Delta-T
°C
Wind Press
QNH
hPa
Press
MSL
hPa
Rain
since 9 am
mm
Dir
 
Spd
km/h
Gust
km/h
Spd
kts
Gust
kts
26/11:30pm 13.5 - - - - SSW 9 9 5 5 1018.8 1018.8 -

Other Formats:

Comma delimited format used in spreadsheet applications
http://www.bom.gov.au/fwo/IDV60801/IDV60801.95826.axf

JavaScript Object Notation format (JSON) in row-major order
http://www.bom.gov.au/fwo/IDV60801/IDV60801.95826.json